sensor_id;sensor_type;location;lat;lon;timestamp;temperature;humidity
12268;DHT22;6196;48.398;11.736;2023-02-28T00:01:25;-0.60;99.90
12268;DHT22;6196;48.398;11.736;2023-02-28T00:03:53;-0.60;99.90
12268;DHT22;6196;48.398;11.736;2023-02-28T00:06:20;-0.60;99.90
12268;DHT22;6196;48.398;11.736;2023-02-28T00:08:47;-0.70;99.90
12268;DHT22;6196;48.398;11.736;2023-02-28T00:11:15;-0.80;99.90
12268;DHT22;6196;48.398;11.736;2023-02-28T00:13:44;-0.70;99.90
12268;DHT22;6196;48.398;11.736;2023-02-28T00:16:20;-0.90;99.90
12268;DHT22;6196;48.398;11.736;2023-02-28T00:18:49;-0.90;99.90
12268;DHT22;6196;48.398;11.736;2023-02-28T00:21:17;-0.90;99.90
12268;DHT22;6196;48.398;11.736;2023-02-28T00:23:45;-1.00;99.90
12268;DHT22;6196;48.398;11.736;2023-02-28T00:26:12;-1.10;99.90
12268;DHT22;6196;48.398;11.736;2023-02-28T00:28:39;-1.10;99.90
12268;DHT22;6196;48.398;11.736;2023-02-28T00:31:06;-1.10;99.90
12268;DHT22;6196;48.398;11.736;2023-02-28T00:33:32;-1.10;99.90
12268;DHT22;6196;48.398;11.736;2023-02-28T00:36:08;-1.10;99.90
12268;DHT22;6196;48.398;11.736;2023-02-28T00:38:37;-1.10;99.90
12268;DHT22;6196;48.398;11.736;2023-02-28T00:41:04;-1.10;99.90
12268;DHT22;6196;48.398;11.736;2023-02-28T00:43:33;-1.10;99.90
12268;DHT22;6196;48.398;11.736;2023-02-28T00:46:02;-1.20;99.90
12268;DHT22;6196;48.398;11.736;2023-02-28T00:48:29;-1.20;99.90
12268;DHT22;6196;48.398;11.736;2023-02-28T00:50:56;-1.30;99.90
12268;DHT22;6196;48.398;11.736;2023-02-28T00:53:23;-1.30;99.90
12268;DHT22;6196;48.398;11.736;2023-02-28T00:55:50;-1.40;99.90
12268;DHT22;6196;48.398;11.736;2023-02-28T00:58:17;-1.50;99.90
12268;DHT22;6196;48.398;11.736;2023-02-28T01:00:44;-1.50;99.90
12268;DHT22;6196;48.398;11.736;2023-02-28T01:03:19;-1.50;99.90
12268;DHT22;6196;48.398;11.736;2023-02-28T01:05:47;-1.50;99.90
12268;DHT22;6196;48.398;11.736;2023-02-28T01:08:14;-1.50;99.90
12268;DHT22;6196;48.398;11.736;2023-02-28T01:10:42;-1.50;99.90
12268;DHT22;6196;48.398;11.736;2023-02-28T01:13:09;-1.60;99.90
12268;DHT22;6196;48.398;11.736;2023-02-28T01:15:36;-1.60;99.90
12268;DHT22;6196;48.398;11.736;2023-02-28T01:18:12;-1.50;99.90
12268;DHT22;6196;48.398;11.736;2023-02-28T01:20:39;-1.50;99.90
12268;DHT22;6196;48.398;11.736;2023-02-28T01:23:06;-1.50;99.90
12268;DHT22;6196;48.398;11.736;2023-02-28T01:25:35;-1.50;99.90
12268;DHT22;6196;48.398;11.736;2023-02-28T01:28:02;-1.50;99.90
12268;DHT22;6196;48.398;11.736;2023-02-28T01:30:29;-1.50;99.90
12268;DHT22;6196;48.398;11.736;2023-02-28T01:32:57;-1.40;99.90
12268;DHT22;6196;48.398;11.736;2023-02-28T01:35:24;-1.40;99.90
12268;DHT22;6196;48.398;11.736;2023-02-28T01:37:51;-1.30;99.90
12268;DHT22;6196;48.398;11.736;2023-02-28T01:40:18;-1.30;99.90
12268;DHT22;6196;48.398;11.736;2023-02-28T01:42:45;-1.20;99.90
12268;DHT22;6196;48.398;11.736;2023-02-28T01:47:54;-1.10;99.90
12268;DHT22;6196;48.398;11.736;2023-02-28T01:50:26;-1.00;99.90
12268;DHT22;6196;48.398;11.736;2023-02-28T01:52:59;-1.10;99.90
12268;DHT22;6196;48.398;11.736;2023-02-28T01:55:28;-1.10;99.90
12268;DHT22;6196;48.398;11.736;2023-02-28T01:57:58;-1.00;99.90
12268;DHT22;6196;48.398;11.736;2023-02-28T02:00:28;-1.00;99.90
12268;DHT22;6196;48.398;11.736;2023-02-28T02:02:59;-1.10;99.90
12268;DHT22;6196;48.398;11.736;2023-02-28T02:05:30;-1.10;99.90
12268;DHT22;6196;48.398;11.736;2023-02-28T02:08:11;-1.10;99.90
12268;DHT22;6196;48.398;11.736;2023-02-28T02:10:43;-1.10;99.90
12268;DHT22;6196;48.398;11.736;2023-02-28T02:19:14;-1.20;99.90
12268;DHT22;6196;48.398;11.736;2023-02-28T02:28:55;-1.30;99.90
12268;DHT22;6196;48.398;11.736;2023-02-28T02:37:16;-1.30;99.90
12268;DHT22;6196;48.398;11.736;2023-02-28T02:40:08;-1.30;99.90
12268;DHT22;6196;48.398;11.736;2023-02-28T02:45:36;-1.30;99.90
12268;DHT22;6196;48.398;11.736;2023-02-28T02:48:09;-1.30;99.90
12268;DHT22;6196;48.398;11.736;2023-02-28T02:50:43;-1.40;99.90
12268;DHT22;6196;48.398;11.736;2023-02-28T02:53:15;-1.40;99.90
12268;DHT22;6196;48.398;11.736;2023-02-28T02:55:47;-1.40;99.90
12268;DHT22;6196;48.398;11.736;2023-02-28T02:58:22;-1.40;99.90
12268;DHT22;6196;48.398;11.736;2023-02-28T03:00:55;-1.50;99.90
12268;DHT22;6196;48.398;11.736;2023-02-28T03:03:26;-1.50;99.90
12268;DHT22;6196;48.398;11.736;2023-02-28T03:06:01;-1.50;99.90
12268;DHT22;6196;48.398;11.736;2023-02-28T03:08:34;-1.50;99.90
12268;DHT22;6196;48.398;11.736;2023-02-28T03:11:13;-1.40;99.90
12268;DHT22;6196;48.398;11.736;2023-02-28T03:17:01;-1.60;99.90
12268;DHT22;6196;48.398;11.736;2023-02-28T03:20:07;-1.50;99.90
12268;DHT22;6196;48.398;11.736;2023-02-28T03:22:54;-1.30;99.90
12268;DHT22;6196;48.398;11.736;2023-02-28T03:28:31;-1.20;99.90
12268;DHT22;6196;48.398;11.736;2023-02-28T03:31:13;-1.20;99.90
12268;DHT22;6196;48.398;11.736;2023-02-28T03:34:10;-1.20;99.90
12268;DHT22;6196;48.398;11.736;2023-02-28T03:36:47;-1.10;99.90
12268;DHT22;6196;48.398;11.736;2023-02-28T03:39:23;-1.10;99.90
12268;DHT22;6196;48.398;11.736;2023-02-28T03:41:59;-1.00;99.90
12268;DHT22;6196;48.398;11.736;2023-02-28T03:44:44;-1.10;99.90
12268;DHT22;6196;48.398;11.736;2023-02-28T03:47:17;-1.10;99.90
12268;DHT22;6196;48.398;11.736;2023-02-28T03:50:07;-1.10;99.90
12268;DHT22;6196;48.398;11.736;2023-02-28T03:52:46;-1.10;99.90
12268;DHT22;6196;48.398;11.736;2023-02-28T03:55:16;-1.20;99.90
12268;DHT22;6196;48.398;11.736;2023-02-28T03:57:57;-1.20;99.90
12268;DHT22;6196;48.398;11.736;2023-02-28T04:00:35;-1.20;99.90
12268;DHT22;6196;48.398;11.736;2023-02-28T04:03:04;-1.20;99.90
12268;DHT22;6196;48.398;11.736;2023-02-28T04:05:32;-1.20;99.90
12268;DHT22;6196;48.398;11.736;2023-02-28T04:08:07;-1.20;99.90
12268;DHT22;6196;48.398;11.736;2023-02-28T04:10:34;-1.30;99.90
12268;DHT22;6196;48.398;11.736;2023-02-28T04:13:01;-1.10;99.90
12268;DHT22;6196;48.398;11.736;2023-02-28T04:15:28;-1.10;99.90
12268;DHT22;6196;48.398;11.736;2023-02-28T04:17:55;-1.10;99.90
12268;DHT22;6196;48.398;11.736;2023-02-28T04:20:21;-1.10;99.90
12268;DHT22;6196;48.398;11.736;2023-02-28T04:22:48;-1.10;99.90
12268;DHT22;6196;48.398;11.736;2023-02-28T04:25:15;-1.10;99.90
12268;DHT22;6196;48.398;11.736;2023-02-28T04:27:42;-1.10;99.90
12268;DHT22;6196;48.398;11.736;2023-02-28T04:30:11;-1.00;99.90
12268;DHT22;6196;48.398;11.736;2023-02-28T04:32:38;-1.00;99.90
12268;DHT22;6196;48.398;11.736;2023-02-28T04:35:05;-1.00;99.90
12268;DHT22;6196;48.398;11.736;2023-02-28T04:37:32;-1.00;99.90
12268;DHT22;6196;48.398;11.736;2023-02-28T04:40:01;-1.00;99.90
12268;DHT22;6196;48.398;11.736;2023-02-28T04:42:29;-1.00;99.90
12268;DHT22;6196;48.398;11.736;2023-02-28T04:45:03;-1.10;99.90
12268;DHT22;6196;48.398;11.736;2023-02-28T04:47:30;-1.10;99.90
12268;DHT22;6196;48.398;11.736;2023-02-28T04:49:57;-1.10;99.90
12268;DHT22;6196;48.398;11.736;2023-02-28T04:52:24;-1.10;99.90
12268;DHT22;6196;48.398;11.736;2023-02-28T04:54:51;-1.10;99.90
12268;DHT22;6196;48.398;11.736;2023-02-28T04:57:18;-1.00;99.90
12268;DHT22;6196;48.398;11.736;2023-02-28T04:59:45;-1.10;99.90
12268;DHT22;6196;48.398;11.736;2023-02-28T05:02:20;-1.10;99.90
12268;DHT22;6196;48.398;11.736;2023-02-28T05:04:47;-1.10;99.90
12268;DHT22;6196;48.398;11.736;2023-02-28T05:07:14;-1.10;99.90
12268;DHT22;6196;48.398;11.736;2023-02-28T05:09:41;-1.20;99.90
12268;DHT22;6196;48.398;11.736;2023-02-28T05:12:09;-1.10;99.90
12268;DHT22;6196;48.398;11.736;2023-02-28T05:14:36;-1.20;99.90
12268;DHT22;6196;48.398;11.736;2023-02-28T05:17:03;-1.10;99.90
12268;DHT22;6196;48.398;11.736;2023-02-28T05:19:29;-1.10;99.90
12268;DHT22;6196;48.398;11.736;2023-02-28T05:21:56;-1.10;99.90
12268;DHT22;6196;48.398;11.736;2023-02-28T05:24:23;-1.10;99.90
12268;DHT22;6196;48.398;11.736;2023-02-28T05:26:52;-1.10;99.90
12268;DHT22;6196;48.398;11.736;2023-02-28T05:29:20;-1.20;99.90
12268;DHT22;6196;48.398;11.736;2023-02-28T05:31:47;-1.20;99.90
12268;DHT22;6196;48.398;11.736;2023-02-28T05:34:14;-1.30;99.90
12268;DHT22;6196;48.398;11.736;2023-02-28T05:36:42;-1.30;99.90
12268;DHT22;6196;48.398;11.736;2023-02-28T05:39:09;-1.30;99.90
12268;DHT22;6196;48.398;11.736;2023-02-28T05:41:42;-1.30;99.90
12268;DHT22;6196;48.398;11.736;2023-02-28T05:44:10;-1.30;99.90
12268;DHT22;6196;48.398;11.736;2023-02-28T05:46:37;-1.40;99.90
12268;DHT22;6196;48.398;11.736;2023-02-28T05:49:05;-1.30;99.90
12268;DHT22;6196;48.398;11.736;2023-02-28T05:51:32;-1.40;99.90
12268;DHT22;6196;48.398;11.736;2023-02-28T05:54:01;-1.40;99.90
12268;DHT22;6196;48.398;11.736;2023-02-28T05:56:29;-1.50;99.90
12268;DHT22;6196;48.398;11.736;2023-02-28T05:58:56;-1.40;99.90
12268;DHT22;6196;48.398;11.736;2023-02-28T06:04:04;-1.50;99.90
12268;DHT22;6196;48.398;11.736;2023-02-28T06:06:32;-1.50;99.90
12268;DHT22;6196;48.398;11.736;2023-02-28T06:09:04;-1.50;99.90
12268;DHT22;6196;48.398;11.736;2023-02-28T06:11:32;-1.50;99.90
12268;DHT22;6196;48.398;11.736;2023-02-28T06:14:00;-1.50;99.90
12268;DHT22;6196;48.398;11.736;2023-02-28T06:16:28;-1.80;99.90
12268;DHT22;6196;48.398;11.736;2023-02-28T06:19:01;-1.60;99.90
12268;DHT22;6196;48.398;11.736;2023-02-28T06:21:30;-1.60;99.90
12268;DHT22;6196;48.398;11.736;2023-02-28T06:23:58;-1.60;99.90
12268;DHT22;6196;48.398;11.736;2023-02-28T06:26:26;-1.60;99.90
12268;DHT22;6196;48.398;11.736;2023-02-28T06:28:53;-1.80;99.90
12268;DHT22;6196;48.398;11.736;2023-02-28T06:31:20;-1.60;99.90
12268;DHT22;6196;48.398;11.736;2023-02-28T06:33:48;-1.70;99.90
12268;DHT22;6196;48.398;11.736;2023-02-28T06:36:16;-1.60;99.90
12268;DHT22;6196;48.398;11.736;2023-02-28T06:38:44;-1.50;99.90
12268;DHT22;6196;48.398;11.736;2023-02-28T06:41:11;-1.50;99.90
12268;DHT22;6196;48.398;11.736;2023-02-28T06:43:41;-1.40;99.90
12268;DHT22;6196;48.398;11.736;2023-02-28T06:46:11;-1.20;99.90
12268;DHT22;6196;48.398;11.736;2023-02-28T06:48:40;-1.10;99.90
12268;DHT22;6196;48.398;11.736;2023-02-28T06:51:12;-0.90;99.90
12268;DHT22;6196;48.398;11.736;2023-02-28T06:53:44;-0.70;99.90
12268;DHT22;6196;48.398;11.736;2023-02-28T06:56:14;-0.50;99.90
12268;DHT22;6196;48.398;11.736;2023-02-28T06:58:49;-0.40;99.90
12268;DHT22;6196;48.398;11.736;2023-02-28T07:01:17;-0.20;99.90
12268;DHT22;6196;48.398;11.736;2023-02-28T07:03:44;-0.10;99.90
12268;DHT22;6196;48.398;11.736;2023-02-28T07:06:11;0.00;99.90
12268;DHT22;6196;48.398;11.736;2023-02-28T07:08:38;0.20;99.90
12268;DHT22;6196;48.398;11.736;2023-02-28T07:11:07;0.30;99.90
12268;DHT22;6196;48.398;11.736;2023-02-28T07:13:34;0.40;99.90
12268;DHT22;6196;48.398;11.736;2023-02-28T07:16:05;0.50;99.90
12268;DHT22;6196;48.398;11.736;2023-02-28T07:18:34;0.60;99.90
12268;DHT22;6196;48.398;11.736;2023-02-28T07:21:04;0.90;99.90
12268;DHT22;6196;48.398;11.736;2023-02-28T07:23:32;1.10;99.90
12268;DHT22;6196;48.398;11.736;2023-02-28T07:25:59;1.20;99.90
12268;DHT22;6196;48.398;11.736;2023-02-28T07:28:26;1.30;99.90
12268;DHT22;6196;48.398;11.736;2023-02-28T07:30:53;1.50;99.90
12268;DHT22;6196;48.398;11.736;2023-02-28T07:33:20;1.60;99.90
12268;DHT22;6196;48.398;11.736;2023-02-28T07:35:47;1.60;99.90
12268;DHT22;6196;48.398;11.736;2023-02-28T07:38:14;1.50;99.90
12268;DHT22;6196;48.398;11.736;2023-02-28T07:40:41;1.50;99.90
12268;DHT22;6196;48.398;11.736;2023-02-28T07:43:08;1.80;99.90
12268;DHT22;6196;48.398;11.736;2023-02-28T07:45:39;2.10;99.90
12268;DHT22;6196;48.398;11.736;2023-02-28T07:48:06;2.30;99.90
12268;DHT22;6196;48.398;11.736;2023-02-28T07:50:36;2.20;99.90
12268;DHT22;6196;48.398;11.736;2023-02-28T07:53:03;2.30;99.90
12268;DHT22;6196;48.398;11.736;2023-02-28T07:55:30;2.50;99.90
12268;DHT22;6196;48.398;11.736;2023-02-28T07:57:58;2.50;99.90
12268;DHT22;6196;48.398;11.736;2023-02-28T08:00:25;2.70;99.90
12268;DHT22;6196;48.398;11.736;2023-02-28T08:02:51;2.60;99.90
12268;DHT22;6196;48.398;11.736;2023-02-28T08:05:18;2.90;99.90
12268;DHT22;6196;48.398;11.736;2023-02-28T08:07:49;3.00;99.90
12268;DHT22;6196;48.398;11.736;2023-02-28T08:10:16;3.20;99.90
12268;DHT22;6196;48.398;11.736;2023-02-28T08:12:43;3.20;99.90
12268;DHT22;6196;48.398;11.736;2023-02-28T08:15:10;3.10;99.90
12268;DHT22;6196;48.398;11.736;2023-02-28T08:17:37;3.40;99.90
12268;DHT22;6196;48.398;11.736;2023-02-28T08:20:04;3.70;99.90
12268;DHT22;6196;48.398;11.736;2023-02-28T08:22:32;3.70;99.90
12268;DHT22;6196;48.398;11.736;2023-02-28T08:24:58;4.10;99.90
12268;DHT22;6196;48.398;11.736;2023-02-28T08:27:25;4.20;99.90
12268;DHT22;6196;48.398;11.736;2023-02-28T08:29:52;4.40;99.90
12268;DHT22;6196;48.398;11.736;2023-02-28T08:32:19;4.30;99.90
12268;DHT22;6196;48.398;11.736;2023-02-28T08:34:55;4.10;99.90
12268;DHT22;6196;48.398;11.736;2023-02-28T08:37:22;4.00;99.90
12268;DHT22;6196;48.398;11.736;2023-02-28T08:39:49;3.90;99.90
12268;DHT22;6196;48.398;11.736;2023-02-28T08:42:16;3.50;99.90
12268;DHT22;6196;48.398;11.736;2023-02-28T08:44:43;3.50;99.90
12268;DHT22;6196;48.398;11.736;2023-02-28T08:47:10;3.70;99.90
12268;DHT22;6196;48.398;11.736;2023-02-28T08:49:37;3.60;99.90
12268;DHT22;6196;48.398;11.736;2023-02-28T08:52:04;3.90;99.90
12268;DHT22;6196;48.398;11.736;2023-02-28T08:54:31;4.70;99.90
12268;DHT22;6196;48.398;11.736;2023-02-28T08:57:00;5.00;99.90
12268;DHT22;6196;48.398;11.736;2023-02-28T08:59:26;5.00;99.90
12268;DHT22;6196;48.398;11.736;2023-02-28T09:01:53;4.70;99.90
12268;DHT22;6196;48.398;11.736;2023-02-28T09:04:20;5.30;99.90
12268;DHT22;6196;48.398;11.736;2023-02-28T09:06:50;5.60;99.90
12268;DHT22;6196;48.398;11.736;2023-02-28T09:09:17;5.50;99.90
12268;DHT22;6196;48.398;11.736;2023-02-28T09:11:44;5.40;99.90
12268;DHT22;6196;48.398;11.736;2023-02-28T09:14:10;5.50;99.90
12268;DHT22;6196;48.398;11.736;2023-02-28T09:16:37;5.50;99.90
12268;DHT22;6196;48.398;11.736;2023-02-28T09:19:04;6.00;99.90
12268;DHT22;6196;48.398;11.736;2023-02-28T09:21:31;6.00;99.90
12268;DHT22;6196;48.398;11.736;2023-02-28T09:23:58;5.80;99.90
12268;DHT22;6196;48.398;11.736;2023-02-28T09:26:27;5.60;99.90
12268;DHT22;6196;48.398;11.736;2023-02-28T09:29:08;5.50;99.90
12268;DHT22;6196;48.398;11.736;2023-02-28T09:31:35;5.30;99.90
12268;DHT22;6196;48.398;11.736;2023-02-28T09:34:03;5.60;99.90
12268;DHT22;6196;48.398;11.736;2023-02-28T09:36:30;5.10;99.90
12268;DHT22;6196;48.398;11.736;2023-02-28T09:39:09;5.10;99.90
12268;DHT22;6196;48.398;11.736;2023-02-28T09:41:39;5.50;99.90
12268;DHT22;6196;48.398;11.736;2023-02-28T09:44:22;5.90;99.90
12268;DHT22;6196;48.398;11.736;2023-02-28T09:46:59;6.10;99.90
12268;DHT22;6196;48.398;11.736;2023-02-28T09:49:41;5.80;99.90
12268;DHT22;6196;48.398;11.736;2023-02-28T09:52:15;5.70;99.90
12268;DHT22;6196;48.398;11.736;2023-02-28T09:54:44;5.20;99.90
12268;DHT22;6196;48.398;11.736;2023-02-28T09:57:41;4.90;99.90
12268;DHT22;6196;48.398;11.736;2023-02-28T10:00:36;5.20;99.90
12268;DHT22;6196;48.398;11.736;2023-02-28T10:03:47;5.30;99.90
12268;DHT22;6196;48.398;11.736;2023-02-28T10:06:30;5.50;99.90
12268;DHT22;6196;48.398;11.736;2023-02-28T10:09:11;6.00;99.90
12268;DHT22;6196;48.398;11.736;2023-02-28T10:11:44;6.70;99.90
12268;DHT22;6196;48.398;11.736;2023-02-28T10:14:16;6.70;99.70
12268;DHT22;6196;48.398;11.736;2023-02-28T10:16:59;6.80;99.90
12268;DHT22;6196;48.398;11.736;2023-02-28T10:25:21;7.30;99.90
12268;DHT22;6196;48.398;11.736;2023-02-28T10:27:54;7.60;98.70
12268;DHT22;6196;48.398;11.736;2023-02-28T10:30:27;8.30;99.90
12268;DHT22;6196;48.398;11.736;2023-02-28T10:32:54;8.00;98.40
12268;DHT22;6196;48.398;11.736;2023-02-28T10:35:24;7.30;98.20
12268;DHT22;6196;48.398;11.736;2023-02-28T10:37:56;6.70;98.30
12268;DHT22;6196;48.398;11.736;2023-02-28T10:43:05;6.60;99.90
12268;DHT22;6196;48.398;11.736;2023-02-28T10:48:34;6.80;98.90
12268;DHT22;6196;48.398;11.736;2023-02-28T10:51:05;7.80;99.80
12268;DHT22;6196;48.398;11.736;2023-02-28T10:53:37;8.20;97.50
12268;DHT22;6196;48.398;11.736;2023-02-28T10:56:27;8.40;97.00
12268;DHT22;6196;48.398;11.736;2023-02-28T10:59:25;8.90;97.30
12268;DHT22;6196;48.398;11.736;2023-02-28T11:01:53;9.20;95.70
12268;DHT22;6196;48.398;11.736;2023-02-28T11:04:34;8.50;95.60
12268;DHT22;6196;48.398;11.736;2023-02-28T11:07:18;7.70;96.20
12268;DHT22;6196;48.398;11.736;2023-02-28T11:09:54;8.40;97.30
12268;DHT22;6196;48.398;11.736;2023-02-28T11:12:32;8.40;95.20
12268;DHT22;6196;48.398;11.736;2023-02-28T11:15:29;8.00;95.40
12268;DHT22;6196;48.398;11.736;2023-02-28T11:18:02;7.80;95.80
12268;DHT22;6196;48.398;11.736;2023-02-28T11:20:35;8.50;96.00
12268;DHT22;6196;48.398;11.736;2023-02-28T11:23:03;8.20;95.70
12268;DHT22;6196;48.398;11.736;2023-02-28T11:25:36;8.20;95.90
12268;DHT22;6196;48.398;11.736;2023-02-28T11:31:16;7.80;95.80
12268;DHT22;6196;48.398;11.736;2023-02-28T11:33:54;7.90;96.20
12268;DHT22;6196;48.398;11.736;2023-02-28T11:36:25;7.80;96.10
12268;DHT22;6196;48.398;11.736;2023-02-28T11:39:04;7.70;96.10
12268;DHT22;6196;48.398;11.736;2023-02-28T11:54:20;10.60;93.70
12268;DHT22;6196;48.398;11.736;2023-02-28T11:56:55;11.10;92.20
12268;DHT22;6196;48.398;11.736;2023-02-28T12:02:24;10.90;91.50
12268;DHT22;6196;48.398;11.736;2023-02-28T12:11:18;12.90;87.60
12268;DHT22;6196;48.398;11.736;2023-02-28T12:16:34;14.40;83.10
12268;DHT22;6196;48.398;11.736;2023-02-28T12:22:55;15.30;84.00
12268;DHT22;6196;48.398;11.736;2023-02-28T12:28:34;15.60;73.80
12268;DHT22;6196;48.398;11.736;2023-02-28T12:31:19;15.00;74.90
12268;DHT22;6196;48.398;11.736;2023-02-28T12:34:03;15.10;76.30
12268;DHT22;6196;48.398;11.736;2023-02-28T12:36:34;14.70;72.90
12268;DHT22;6196;48.398;11.736;2023-02-28T12:39:12;15.30;73.30
12268;DHT22;6196;48.398;11.736;2023-02-28T12:41:51;15.60;70.80
12268;DHT22;6196;48.398;11.736;2023-02-28T12:44:44;15.00;72.00
12268;DHT22;6196;48.398;11.736;2023-02-28T12:47:17;15.80;73.50
12268;DHT22;6196;48.398;11.736;2023-02-28T12:50:02;17.00;69.50
12268;DHT22;6196;48.398;11.736;2023-02-28T12:53:00;18.20;69.20
12268;DHT22;6196;48.398;11.736;2023-02-28T12:55:43;19.40;68.30
12268;DHT22;6196;48.398;11.736;2023-02-28T13:01:32;20.00;61.20
12268;DHT22;6196;48.398;11.736;2023-02-28T13:10:20;19.80;57.00
12268;DHT22;6196;48.398;11.736;2023-02-28T13:12:51;19.80;59.10
12268;DHT22;6196;48.398;11.736;2023-02-28T13:15:23;19.70;56.90
12268;DHT22;6196;48.398;11.736;2023-02-28T13:17:59;19.70;57.50
12268;DHT22;6196;48.398;11.736;2023-02-28T13:20:29;20.40;55.00
12268;DHT22;6196;48.398;11.736;2023-02-28T13:23:01;19.90;55.60
12268;DHT22;6196;48.398;11.736;2023-02-28T13:28:10;20.00;55.80
12268;DHT22;6196;48.398;11.736;2023-02-28T13:33:32;21.60;55.80
12268;DHT22;6196;48.398;11.736;2023-02-28T13:38:45;22.10;55.80
12268;DHT22;6196;48.398;11.736;2023-02-28T14:01:10;21.80;51.80
12268;DHT22;6196;48.398;11.736;2023-02-28T14:06:33;19.40;51.60
12268;DHT22;6196;48.398;11.736;2023-02-28T14:11:39;17.90;54.60
12268;DHT22;6196;48.398;11.736;2023-02-28T14:14:09;17.50;56.00
12268;DHT22;6196;48.398;11.736;2023-02-28T14:17:12;18.20;55.40
12268;DHT22;6196;48.398;11.736;2023-02-28T14:19:44;18.30;54.30
12268;DHT22;6196;48.398;11.736;2023-02-28T14:22:26;19.00;56.00
12268;DHT22;6196;48.398;11.736;2023-02-28T14:25:09;18.90;54.30
12268;DHT22;6196;48.398;11.736;2023-02-28T14:27:54;18.10;53.30
12268;DHT22;6196;48.398;11.736;2023-02-28T14:36:37;20.10;54.00
12268;DHT22;6196;48.398;11.736;2023-02-28T14:39:17;21.00;52.10
12268;DHT22;6196;48.398;11.736;2023-02-28T14:41:46;19.40;51.10
12268;DHT22;6196;48.398;11.736;2023-02-28T14:44:22;17.20;52.80
12268;DHT22;6196;48.398;11.736;2023-02-28T14:46:59;15.50;56.00
12268;DHT22;6196;48.398;11.736;2023-02-28T14:49:43;14.80;56.70
12268;DHT22;6196;48.398;11.736;2023-02-28T14:52:19;16.00;56.20
12268;DHT22;6196;48.398;11.736;2023-02-28T14:54:59;16.60;55.20
12268;DHT22;6196;48.398;11.736;2023-02-28T14:57:34;17.70;53.40
12268;DHT22;6196;48.398;11.736;2023-02-28T15:02:52;18.40;52.70
12268;DHT22;6196;48.398;11.736;2023-02-28T15:05:29;18.60;52.50
12268;DHT22;6196;48.398;11.736;2023-02-28T15:08:12;17.80;52.70
12268;DHT22;6196;48.398;11.736;2023-02-28T15:10:44;17.60;53.20
12268;DHT22;6196;48.398;11.736;2023-02-28T15:13:13;16.90;54.20
12268;DHT22;6196;48.398;11.736;2023-02-28T15:18:48;17.60;55.30
12268;DHT22;6196;48.398;11.736;2023-02-28T15:21:30;17.80;53.60
12268;DHT22;6196;48.398;11.736;2023-02-28T15:24:07;17.40;54.20
12268;DHT22;6196;48.398;11.736;2023-02-28T15:26:45;16.40;54.10
12268;DHT22;6196;48.398;11.736;2023-02-28T15:29:16;15.30;56.40
12268;DHT22;6196;48.398;11.736;2023-02-28T15:31:48;15.20;56.00
12268;DHT22;6196;48.398;11.736;2023-02-28T15:37:26;15.80;55.30
12268;DHT22;6196;48.398;11.736;2023-02-28T15:40:22;14.20;56.80
12268;DHT22;6196;48.398;11.736;2023-02-28T15:43:18;13.30;58.90
12268;DHT22;6196;48.398;11.736;2023-02-28T15:45:52;12.00;60.80
12268;DHT22;6196;48.398;11.736;2023-02-28T15:48:26;11.00;63.10
12268;DHT22;6196;48.398;11.736;2023-02-28T15:51:06;10.10;65.20
12268;DHT22;6196;48.398;11.736;2023-02-28T15:54:08;9.50;68.50
12268;DHT22;6196;48.398;11.736;2023-02-28T15:56:46;9.00;69.70
12268;DHT22;6196;48.398;11.736;2023-02-28T15:59:20;8.50;70.10
12268;DHT22;6196;48.398;11.736;2023-02-28T16:02:21;8.20;69.90
12268;DHT22;6196;48.398;11.736;2023-02-28T16:07:40;7.60;72.10
12268;DHT22;6196;48.398;11.736;2023-02-28T16:10:11;7.30;73.60
12268;DHT22;6196;48.398;11.736;2023-02-28T16:12:41;7.10;74.30
12268;DHT22;6196;48.398;11.736;2023-02-28T16:15:25;6.90;74.90
12268;DHT22;6196;48.398;11.736;2023-02-28T16:17:56;6.50;76.30
12268;DHT22;6196;48.398;11.736;2023-02-28T16:20:24;6.40;77.30
12268;DHT22;6196;48.398;11.736;2023-02-28T16:22:53;6.00;78.30
12268;DHT22;6196;48.398;11.736;2023-02-28T16:25:29;5.80;79.70
12268;DHT22;6196;48.398;11.736;2023-02-28T16:28:01;5.70;80.80
12268;DHT22;6196;48.398;11.736;2023-02-28T16:30:29;5.60;81.80
12268;DHT22;6196;48.398;11.736;2023-02-28T16:32:59;5.50;81.80
12268;DHT22;6196;48.398;11.736;2023-02-28T16:35:26;5.30;82.50
12268;DHT22;6196;48.398;11.736;2023-02-28T16:37:54;5.20;83.60
12268;DHT22;6196;48.398;11.736;2023-02-28T16:40:23;5.10;84.20
12268;DHT22;6196;48.398;11.736;2023-02-28T16:42:54;4.90;85.10
12268;DHT22;6196;48.398;11.736;2023-02-28T16:45:27;4.80;86.20
12268;DHT22;6196;48.398;11.736;2023-02-28T16:47:55;4.70;86.90
12268;DHT22;6196;48.398;11.736;2023-02-28T16:50:25;4.50;87.10
12268;DHT22;6196;48.398;11.736;2023-02-28T16:52:54;4.50;87.70
12268;DHT22;6196;48.398;11.736;2023-02-28T16:55:23;4.40;88.20
12268;DHT22;6196;48.398;11.736;2023-02-28T16:57:56;4.30;89.10
12268;DHT22;6196;48.398;11.736;2023-02-28T17:00:26;4.20;90.70
12268;DHT22;6196;48.398;11.736;2023-02-28T17:02:54;4.00;91.90
12268;DHT22;6196;48.398;11.736;2023-02-28T17:05:23;3.80;92.40
12268;DHT22;6196;48.398;11.736;2023-02-28T17:07:50;3.70;92.70
12268;DHT22;6196;48.398;11.736;2023-02-28T17:12:44;3.60;93.80
12268;DHT22;6196;48.398;11.736;2023-02-28T17:15:12;3.50;94.20
12268;DHT22;6196;48.398;11.736;2023-02-28T17:17:42;3.50;94.60
12268;DHT22;6196;48.398;11.736;2023-02-28T17:20:27;3.40;95.30
12268;DHT22;6196;48.398;11.736;2023-02-28T17:22:54;3.40;95.80
12268;DHT22;6196;48.398;11.736;2023-02-28T17:25:23;3.30;96.40
12268;DHT22;6196;48.398;11.736;2023-02-28T17:27:50;3.20;96.90
12268;DHT22;6196;48.398;11.736;2023-02-28T17:30:24;3.20;97.40
12268;DHT22;6196;48.398;11.736;2023-02-28T17:32:56;3.10;97.90
12268;DHT22;6196;48.398;11.736;2023-02-28T17:35:23;3.10;98.30
12268;DHT22;6196;48.398;11.736;2023-02-28T17:37:50;3.00;98.70
12268;DHT22;6196;48.398;11.736;2023-02-28T17:40:20;3.00;99.00
12268;DHT22;6196;48.398;11.736;2023-02-28T17:42:48;2.90;99.60
12268;DHT22;6196;48.398;11.736;2023-02-28T17:45:16;2.80;99.90
12268;DHT22;6196;48.398;11.736;2023-02-28T17:47:46;2.80;99.90
12268;DHT22;6196;48.398;11.736;2023-02-28T17:50:17;2.70;99.90
12268;DHT22;6196;48.398;11.736;2023-02-28T17:52:45;2.70;99.90
12268;DHT22;6196;48.398;11.736;2023-02-28T17:55:13;2.70;99.90
12268;DHT22;6196;48.398;11.736;2023-02-28T17:57:40;2.70;99.90
12268;DHT22;6196;48.398;11.736;2023-02-28T18:00:12;2.60;99.90
12268;DHT22;6196;48.398;11.736;2023-02-28T18:02:39;2.60;99.90
12268;DHT22;6196;48.398;11.736;2023-02-28T18:05:07;2.60;99.90
12268;DHT22;6196;48.398;11.736;2023-02-28T18:07:36;2.50;99.90
12268;DHT22;6196;48.398;11.736;2023-02-28T18:10:06;2.50;99.90
12268;DHT22;6196;48.398;11.736;2023-02-28T18:12:34;2.50;99.90
12268;DHT22;6196;48.398;11.736;2023-02-28T18:15:01;2.60;99.90
12268;DHT22;6196;48.398;11.736;2023-02-28T18:17:28;2.60;99.90
12268;DHT22;6196;48.398;11.736;2023-02-28T18:19:55;2.60;99.90
12268;DHT22;6196;48.398;11.736;2023-02-28T18:22:22;2.60;99.90
12268;DHT22;6196;48.398;11.736;2023-02-28T18:24:49;2.60;99.90
12268;DHT22;6196;48.398;11.736;2023-02-28T18:27:16;2.60;99.90
12268;DHT22;6196;48.398;11.736;2023-02-28T18:29:43;2.70;99.90